Terminal Aerodrome Forecast
Issued by NWS

Home | Current Version | Previous Version | Text Only | Print | Product List | Glossary On
Versions: 1 2 3 4 5 6 7 8 9 10 11 12 13 14
000
FTUS43 KOAX 050520
TAFBFF
TAF
KBFF 050520Z 0506/0606 11008KT P6SM OVC020
     FM050730 11008KT P6SM OVC009
     FM050900 12011KT 3SM BR OVC003
     FM051700 13015G25KT P6SM VCSH SCT007 BKN015=

USA.gov is the U.S. government's official web portal to all federal, state and local government web resources and services.